Time;durP1;ratioP1;P1;durP2;ratioP2;P2;SDS_P1;SDS_P2;PMS_P1;PMS_P2;Temp;Humidity;BMP_temperature;BMP_pressure;BME280_temperature;BME280_humidity;BME280_pressure;Samples;Min_cycle;Max_cycle;Signal;HPM_P1;HPM_P2
2023/10/13 00:00:36;;;;;;;44.58;39.97;;;17.10;99.90;;;;;;5094244;28;20075;-88
2023/10/13 00:03:06;;;;;;;29.40;19.73;;;17.10;99.90;;;;;;5076987;28;20068;-88
2023/10/13 00:05:32;;;;;;;27.55;15.45;;;17.10;99.90;;;;;;5077670;28;20218;-88
2023/10/13 00:08:03;;;;;;;41.30;36.88;;;17.00;99.90;;;;;;5078056;28;20035;-88
2023/10/13 00:10:29;;;;;;;42.35;37.75;;;17.10;99.90;;;;;;5094260;28;20039;-88
2023/10/13 00:13:05;;;;;;;27.38;19.25;;;17.10;99.90;;;;;;5086040;28;20398;-88
2023/10/13 00:15:38;;;;;;;41.80;37.30;;;17.10;99.90;;;;;;5085333;28;20039;-87
2023/10/13 00:18:12;;;;;;;42.00;37.58;;;17.10;99.90;;;;;;5080709;28;20498;-88
2023/10/13 00:20:47;;;;;;;41.95;37.55;;;17.10;99.90;;;;;;5080866;28;20035;-88
2023/10/13 00:23:13;;;;;;;28.90;18.02;;;17.20;99.90;;;;;;5080608;28;20050;-87
2023/10/13 00:25:49;;;;;;;42.13;37.47;;;17.10;99.90;;;;;;5097625;28;20043;-87
2023/10/13 00:28:24;;;;;;;31.33;18.83;;;17.10;99.90;;;;;;5080728;28;20451;-88
2023/10/13 00:30:52;;;;;;;44.22;39.42;;;17.10;99.90;;;;;;5080461;28;20524;-89
2023/10/13 00:33:22;;;;;;;44.85;40.25;;;17.10;99.90;;;;;;5080855;28;20119;-88
2023/10/13 00:35:51;;;;;;;27.42;18.77;;;17.20;99.90;;;;;;5080620;28;20039;-88
2023/10/13 00:38:18;;;;;;;44.58;39.75;;;17.10;99.90;;;;;;5080251;28;20028;-87
2023/10/13 00:40:51;;;;;;;44.33;39.50;;;17.10;99.90;;;;;;5097476;28;20065;-88
2023/10/13 00:45:54;;;;;;;32.05;21.88;;;17.10;99.90;;;;;;5097728;28;20096;-88
2023/10/13 00:48:34;;;;;;;44.53;39.90;;;17.10;99.90;;;;;;5080367;28;20067;-88
2023/10/13 00:51:07;;;;;;;44.25;39.53;;;17.20;99.90;;;;;;5096810;28;20039;-87
2023/10/13 00:53:39;;;;;;;29.35;20.55;;;17.20;99.90;;;;;;5080253;28;20071;-88
2023/10/13 00:56:17;;;;;;;;;;;17.10;99.90;;;;;;5080680;28;20049;-88
2023/10/13 00:58:43;;;;;;;42.92;38.47;;;17.10;99.90;;;;;;5105319;28;20370;-88
2023/10/13 01:01:18;;;;;;;42.95;38.30;;;17.10;99.90;;;;;;5097351;28;20059;-88
2023/10/13 01:04:02;;;;;;;43.90;38.17;;;17.20;99.90;;;;;;5098293;28;20039;-88
2023/10/13 01:06:28;;;;;;;28.33;19.73;;;17.20;99.90;;;;;;5092621;28;20036;-88
2023/10/13 01:09:00;;;;;;;30.58;20.08;;;17.10;99.90;;;;;;5081330;28;20031;-88
2023/10/13 01:11:29;;;;;;;43.53;38.85;;;17.10;99.90;;;;;;5108032;28;20028;-88
2023/10/13 01:13:57;;;;;;;43.83;39.08;;;17.20;99.90;;;;;;5082368;28;20081;-88
2023/10/13 01:16:26;;;;;;;44.13;39.33;;;17.20;99.90;;;;;;5088394;28;20035;-88
2023/10/13 01:18:52;;;;;;;41.85;37.22;;;17.20;99.90;;;;;;5105126;28;20081;-88
2023/10/13 01:21:26;;;;;;;43.53;38.72;;;17.30;99.90;;;;;;5079730;28;20051;-88
2023/10/13 01:23:52;;;;;;;41.65;37.35;;;17.20;99.90;;;;;;5104588;28;20054;-88
2023/10/13 01:26:23;;;;;;;26.00;17.88;;;17.20;99.90;;;;;;5079460;28;20039;-88
2023/10/13 01:28:56;;;;;;;39.20;35.20;;;17.20;99.90;;;;;;5096303;28;20039;-88
2023/10/13 01:31:27;;;;;;;;;;;17.20;99.90;;;;;;5096551;28;20043;-88
2023/10/13 01:33:58;;;;;;;39.05;35.03;;;17.20;99.90;;;;;;5096238;28;20430;-88
2023/10/13 01:36:26;;;;;;;22.17;14.25;;;17.20;99.90;;;;;;5079494;28;20036;-88
2023/10/13 01:38:51;;;;;;;37.67;33.78;;;17.20;99.90;;;;;;5078826;28;20043;-88
2023/10/13 01:41:18;;;;;;;26.90;16.55;;;17.20;99.90;;;;;;5095886;28;20032;-88
2023/10/13 01:43:44;;;;;;;25.98;15.27;;;17.10;99.90;;;;;;5079232;28;20418;-88
2023/10/13 01:46:13;;;;;;;36.90;33.03;;;17.10;99.90;;;;;;5079223;28;20486;-88
2023/10/13 01:48:40;;;;;;;36.22;32.20;;;17.20;99.90;;;;;;5079108;28;20085;-87
2023/10/13 01:51:09;;;;;;;24.88;19.58;;;17.20;99.90;;;;;;5078886;28;20529;-88
2023/10/13 01:53:36;;;;;;;36.20;32.28;;;17.20;99.90;;;;;;5095718;28;20058;-88
2023/10/13 01:56:10;;;;;;;27.05;18.95;;;17.20;99.90;;;;;;5096064;28;20410;-88
2023/10/13 01:58:42;;;;;;;34.17;30.48;;;17.20;99.90;;;;;;5096006;28;20482;-88
2023/10/13 02:01:10;;;;;;;25.40;17.92;;;17.20;99.90;;;;;;5095478;28;20406;-88
2023/10/13 02:03:41;;;;;;;31.42;28.17;;;17.20;99.90;;;;;;5095260;28;20130;-88
2023/10/13 02:06:10;;;;;;;31.98;28.58;;;17.20;99.90;;;;;;5095612;28;20122;-88
2023/10/13 02:08:39;;;;;;;19.42;12.68;;;17.20;99.90;;;;;;5095601;28;20127;-88
2023/10/13 02:11:07;;;;;;;30.10;27.00;;;17.20;99.90;;;;;;5078438;28;20058;-88
2023/10/13 02:13:32;;;;;;;31.52;27.88;;;17.20;99.90;;;;;;5095344;28;20510;-88
2023/10/13 02:16:04;;;;;;;32.45;29.13;;;17.20;99.90;;;;;;5078671;28;20046;-88
2023/10/13 02:18:41;;;;;;;23.48;15.55;;;17.20;99.90;;;;;;5078458;28;20047;-88
2023/10/13 02:21:12;;;;;;;32.33;28.98;;;17.20;99.90;;;;;;5078411;28;20109;-88
2023/10/13 02:23:44;;;;;;;32.10;27.90;;;17.20;99.90;;;;;;5078437;28;20043;-88
2023/10/13 02:26:30;;;;;;;23.42;16.55;;;17.20;99.90;;;;;;5095158;28;20050;-88
2023/10/13 02:29:00;;;;;;;30.52;27.42;;;17.20;99.90;;;;;;5078010;28;20040;-88
2023/10/13 02:31:28;;;;;;;31.25;27.88;;;17.20;99.90;;;;;;5078587;28;20043;-87
2023/10/13 02:33:54;;;;;;;30.83;27.42;;;17.20;99.90;;;;;;5078081;28;20036;-88
2023/10/13 02:36:22;;;;;;;31.90;28.45;;;17.20;99.90;;;;;;5085882;28;20038;-88
2023/10/13 02:38:51;;;;;;;31.60;28.20;;;17.20;99.90;;;;;;5096179;28;20062;-88
2023/10/13 02:41:26;;;;;;;31.27;28.08;;;17.20;99.90;;;;;;5089220;28;20038;-88
2023/10/13 02:43:52;;;;;;;22.65;12.98;;;17.30;99.90;;;;;;5108645;28;20045;-88
2023/10/13 02:46:22;;;;;;;22.17;13.23;;;17.20;99.90;;;;;;5095571;28;20044;-88
2023/10/13 02:48:53;;;;;;;29.80;26.73;;;17.20;99.90;;;;;;5077831;28;20074;-88
2023/10/13 02:51:35;;;;;;;30.67;27.15;;;17.20;99.90;;;;;;5078320;28;20058;-88
2023/10/13 02:54:10;;;;;;;30.15;27.08;;;17.20;99.90;;;;;;5094833;28;20047;-88
2023/10/13 02:56:36;;;;;;;29.90;26.83;;;17.20;99.90;;;;;;5078255;28;20031;-88
2023/10/13 02:59:05;;;;;;;31.05;27.65;;;17.20;99.90;;;;;;5078051;28;20027;-88
2023/10/13 03:01:35;;;;;;;22.90;12.85;;;17.20;99.90;;;;;;5097219;28;20058;-88
2023/10/13 03:04:03;;;;;;;24.60;13.52;;;17.20;99.90;;;;;;5096367;28;20039;-88
2023/10/13 03:06:32;;;;;;;30.13;26.85;;;17.10;99.90;;;;;;5077611;28;20144;-88
2023/10/13 03:09:18;;;;;;;30.90;27.63;;;17.20;99.90;;;;;;5094483;28;20080;-88
2023/10/13 03:11:50;;;;;;;21.30;12.90;;;17.20;99.90;;;;;;5077258;28;20044;-88
2023/10/13 03:14:24;;;;;;;30.05;26.92;;;17.10;99.90;;;;;;5077634;28;20117;-88
2023/10/13 03:17:05;;;;;;;20.33;14.65;;;17.20;99.90;;;;;;5077490;28;20073;-88
2023/10/13 03:19:36;;;;;;;30.85;27.55;;;17.10;99.90;;;;;;5094338;28;20046;-88
2023/10/13 03:22:09;;;;;;;32.08;28.77;;;17.10;99.90;;;;;;5077687;28;20035;-88
2023/10/13 03:24:36;;;;;;;25.77;14.02;;;17.20;99.90;;;;;;5077563;28;20069;-88
2023/10/13 03:27:17;;;;;;;22.65;16.27;;;17.10;99.90;;;;;;5094121;28;20040;-88
2023/10/13 03:29:44;;;;;;;31.17;27.95;;;17.10;99.90;;;;;;5077914;28;20050;-88
2023/10/13 03:32:15;;;;;;;31.05;27.75;;;17.10;99.90;;;;;;5076513;28;20055;-88
2023/10/13 03:35:04;;;;;;;32.28;28.77;;;17.20;99.90;;;;;;5077614;28;20067;-88
2023/10/13 03:37:39;;;;;;;31.75;28.08;;;17.20;99.90;;;;;;5077749;28;20478;-87
2023/10/13 03:43:04;;;;;;;31.33;27.83;;;17.10;99.90;;;;;;5094303;28;20043;-88
2023/10/13 03:45:38;;;;;;;17.50;11.40;;;17.10;99.90;;;;;;5094522;28;20498;-88
2023/10/13 03:48:51;;;;;;;30.17;27.13;;;17.10;99.90;;;;;;5078772;28;20047;-88
2023/10/13 03:51:10;;;;;;;30.35;27.13;;;17.10;99.90;;;;;;5096768;28;20510;-88
2023/10/13 03:53:50;;;;;;;31.05;27.70;;;17.20;99.90;;;;;;5098079;28;20487;-88
2023/10/13 03:56:23;;;;;;;30.90;27.73;;;17.10;99.90;;;;;;5081267;28;20655;-89
2023/10/13 03:58:49;;;;;;;29.35;26.45;;;17.20;99.90;;;;;;5098328;28;20426;-89
2023/10/13 04:01:16;;;;;;;30.35;27.05;;;17.20;99.90;;;;;;5080886;28;20478;-89
2023/10/13 04:04:03;;;;;;;31.33;27.95;;;17.20;99.90;;;;;;5097804;28;20051;-89
2023/10/13 04:15:15;;;;;;;17.98;12.98;;;17.10;99.90;;;;;;5097972;28;20503;-88
2023/10/13 04:17:44;;;;;;;18.75;11.90;;;17.10;99.90;;;;;;5097915;28;20123;-88
2023/10/13 04:28:34;;;;;;;21.15;11.70;;;17.10;99.90;;;;;;5097812;28;20130;-89
2023/10/13 04:31:11;;;;;;;19.15;13.95;;;17.00;99.90;;;;;;5080450;28;20043;-88
2023/10/13 04:33:51;;;;;;;19.95;13.85;;;17.00;99.90;;;;;;5080684;28;20409;-88
2023/10/13 04:41:43;;;;;;;24.73;22.23;;;17.10;99.90;;;;;;5096274;28;20079;-89
2023/10/13 04:49:28;;;;;;;25.65;23.05;;;17.10;99.90;;;;;;5114633;28;20044;-88
2023/10/13 04:51:59;;;;;;;26.42;23.67;;;17.10;99.90;;;;;;5096707;28;20063;-89
2023/10/13 04:54:28;;;;;;;14.27;7.85;;;17.10;99.90;;;;;;5099231;28;20128;-88
2023/10/13 05:00:52;;;;;;;23.73;21.23;;;17.00;99.90;;;;;;5084664;28;20073;-88
2023/10/13 05:49:20;;;;;;;13.43;8.38;;;17.00;99.90;;;;;;5095271;28;20043;-86
2023/10/13 06:29:49;;;;;;;8.20;4.90;;;16.90;99.90;;;;;;5119349;28;20506;-87
2023/10/13 06:32:16;;;;;;;14.95;9.85;;;16.80;99.90;;;;;;5096485;28;20123;-87
2023/10/13 06:34:44;;;;;;;14.75;9.57;;;16.80;99.90;;;;;;5079398;28;20032;-88
2023/10/13 06:37:22;;;;;;;8.27;4.25;;;16.90;99.90;;;;;;5080023;28;20047;-88
2023/10/13 06:39:49;;;;;;;9.68;5.15;;;16.90;99.90;;;;;;5086993;28;20036;-87
2023/10/13 06:42:16;;;;;;;13.35;10.15;;;16.90;99.90;;;;;;5094876;28;20046;-88
2023/10/13 06:44:45;;;;;;;14.60;9.98;;;16.90;99.90;;;;;;5086698;28;20031;-87
2023/10/13 06:47:12;;;;;;;8.65;4.90;;;17.00;99.90;;;;;;5085605;28;20035;-88
2023/10/13 06:49:43;;;;;;;13.60;10.20;;;17.00;99.90;;;;;;5102567;28;20123;-87
2023/10/13 06:52:10;;;;;;;14.55;9.77;;;17.00;99.90;;;;;;5077648;28;20517;-87
2023/10/13 06:54:42;;;;;;;13.40;9.77;;;17.10;99.90;;;;;;5085618;28;20047;-88
2023/10/13 06:57:13;;;;;;;;;;;17.20;99.90;;;;;;5077376;28;20074;-88
2023/10/13 06:59:42;;;;;;;12.80;8.02;;;17.20;99.90;;;;;;5092895;28;19915;-87
2023/10/13 07:02:09;;;;;;;5.88;2.38;;;17.20;99.90;;;;;;5084210;28;20192;-87
2023/10/13 07:04:41;;;;;;;8.45;4.45;;;17.30;99.90;;;;;;5094369;28;20047;-87
2023/10/13 07:07:10;;;;;;;13.10;7.60;;;17.30;99.90;;;;;;5084937;28;20514;-87
2023/10/13 07:12:04;;;;;;;13.15;7.00;;;17.30;99.90;;;;;;5093716;28;20108;-87
2023/10/13 07:14:33;;;;;;;14.45;6.65;;;17.40;99.90;;;;;;5079788;27;20092;-87
2023/10/13 07:17:07;;;;;;;11.65;6.25;;;17.40;99.90;;;;;;5100477;28;20042;-87
2023/10/13 07:19:33;;;;;;;6.80;3.15;;;17.50;99.90;;;;;;5083067;28;20501;-87
2023/10/13 07:22:19;;;;;;;12.50;6.70;;;17.40;99.90;;;;;;5100087;28;20050;-87
2023/10/13 07:24:48;;;;;;;15.13;8.13;;;17.50;99.90;;;;;;5102375;28;20081;-87
2023/10/13 07:27:24;;;;;;;16.13;9.65;;;17.50;99.90;;;;;;5099727;28;20078;-87
2023/10/13 07:30:07;;;;;;;17.63;8.95;;;17.50;99.90;;;;;;5082851;28;20095;-87
2023/10/13 07:32:44;;;;;;;12.93;7.15;;;17.50;99.90;;;;;;5083593;28;20031;-87
2023/10/13 07:35:20;;;;;;;13.25;7.45;;;17.60;99.90;;;;;;5083370;28;20032;-87
2023/10/13 07:37:52;;;;;;;20.63;14.52;;;17.60;99.90;;;;;;5083862;28;20088;-87
2023/10/13 07:43:21;;;;;;;17.27;10.15;;;17.60;99.90;;;;;;5103672;28;20039;-87
2023/10/13 07:45:43;;;;;;;14.93;7.30;;;17.60;99.90;;;;;;5099270;28;20043;-87
2023/10/13 07:48:19;;;;;;;15.05;7.38;;;17.60;99.90;;;;;;5105660;28;20516;-87
2023/10/13 07:50:58;;;;;;;14.82;7.55;;;17.70;99.90;;;;;;5102142;28;20035;-87
2023/10/13 07:53:23;;;;;;;14.45;7.25;;;17.70;99.90;;;;;;5095248;28;20039;-87
2023/10/13 07:55:56;;;;;;;14.20;4.78;;;17.70;99.90;;;;;;5081253;28;20410;-87
2023/10/13 07:58:25;;;;;;;14.48;7.07;;;17.70;99.90;;;;;;5068745;28;20084;-88
2023/10/13 08:01:06;;;;;;;17.65;7.25;;;17.70;99.90;;;;;;5076422;28;20038;-88
2023/10/13 08:04:04;;;;;;;16.10;7.18;;;17.70;99.90;;;;;;5076569;28;20047;-87
2023/10/13 08:06:26;;;;;;;13.50;6.97;;;17.70;99.90;;;;;;5092285;28;20047;-88
2023/10/13 08:08:54;;;;;;;16.08;7.28;;;17.70;99.90;;;;;;5075996;28;20043;-88
2023/10/13 08:13:59;;;;;;;11.25;3.85;;;17.70;99.90;;;;;;5093529;28;20040;-88
2023/10/13 08:16:45;;;;;;;17.92;7.30;;;17.70;99.90;;;;;;5076829;28;20039;-88
2023/10/13 08:19:12;;;;;;;17.25;7.35;;;17.70;99.90;;;;;;5093373;28;20514;-88
2023/10/13 08:21:38;;;;;;;21.15;8.27;;;17.70;99.90;;;;;;5076574;28;20436;-88
2023/10/13 08:24:07;;;;;;;20.38;8.65;;;17.70;99.90;;;;;;5093033;28;20122;-88
2023/10/13 08:34:38;;;;;;;16.98;8.85;;;17.80;99.90;;;;;;5095123;28;20040;-88
2023/10/13 08:37:29;;;;;;;17.92;8.30;;;17.80;99.90;;;;;;5105276;28;20118;-88
2023/10/13 08:39:58;;;;;;;10.05;4.47;;;17.90;99.90;;;;;;5095769;28;20054;-88
2023/10/13 08:45:20;;;;;;;14.27;8.32;;;17.90;99.90;;;;;;5104639;28;20410;-88
2023/10/13 08:48:07;;;;;;;11.48;5.65;;;18.00;99.90;;;;;;5102766;27;20051;-88
2023/10/13 08:50:52;;;;;;;13.48;7.93;;;18.00;99.90;;;;;;5086994;27;20274;-88
2023/10/13 09:01:59;;;;;;;14.07;8.05;;;18.30;99.90;;;;;;5096640;28;20031;-87
2023/10/13 09:12:25;;;;;;;12.23;7.00;;;18.60;99.90;;;;;;5015373;28;20053;-88
2023/10/13 09:15:05;;;;;;;14.90;7.32;;;18.60;99.90;;;;;;5014907;28;20053;-88
2023/10/13 09:17:34;;;;;;;15.38;7.45;;;18.70;99.90;;;;;;4998470;28;20044;-88
2023/10/13 09:25:35;;;;;;;15.35;4.38;;;18.80;99.90;;;;;;5023110;28;20045;-89
2023/10/13 09:28:18;;;;;;;14.65;6.53;;;18.90;99.90;;;;;;4998661;28;20077;-88
2023/10/13 09:30:48;;;;;;;15.00;6.80;;;18.90;99.90;;;;;;4998117;28;20091;-88
2023/10/13 09:33:50;;;;;;;14.32;7.10;;;19.00;99.90;;;;;;5006542;28;20041;-88
2023/10/13 09:36:17;;;;;;;14.10;6.63;;;19.00;99.90;;;;;;5022980;28;20037;-88
2023/10/13 09:39:10;;;;;;;14.93;7.43;;;19.10;99.90;;;;;;4998138;28;20128;-88
2023/10/13 09:41:32;;;;;;;14.90;6.63;;;19.10;99.90;;;;;;5082310;28;20035;-89
2023/10/13 09:43:58;;;;;;;14.60;7.13;;;19.10;99.90;;;;;;5094997;28;20050;-89
2023/10/13 09:46:28;;;;;;;15.68;5.78;;;19.10;99.90;;;;;;5104413;28;20405;-89
2023/10/13 09:49:14;;;;;;;16.02;7.30;;;19.00;99.90;;;;;;5086990;28;20046;-89
2023/10/13 09:51:44;;;;;;;16.70;7.57;;;19.10;99.90;;;;;;5094995;28;20528;-89
2023/10/13 09:54:26;;;;;;;14.32;6.82;;;19.10;99.90;;;;;;5078114;28;20063;-89
2023/10/13 09:57:01;;;;;;;14.93;7.50;;;19.10;99.90;;;;;;5081473;28;20158;-88
2023/10/13 09:59:34;;;;;;;15.88;7.28;;;19.10;99.90;;;;;;5078675;28;20039;-89
2023/10/13 10:02:08;;;;;;;17.55;7.93;;;19.10;99.90;;;;;;5095104;28;20050;-89
2023/10/13 10:04:51;;;;;;;16.23;6.72;;;19.20;99.90;;;;;;5078646;28;20051;-89
2023/10/13 10:07:29;;;;;;;;;;;19.20;99.90;;;;;;5079098;28;20043;-88
2023/10/13 10:10:03;;;;;;;14.05;6.75;;;19.20;99.90;;;;;;5075211;28;20418;-88
2023/10/13 10:12:46;;;;;;;17.83;7.22;;;19.30;99.90;;;;;;5101792;28;20118;-89
2023/10/13 10:15:33;;;;;;;15.20;6.72;;;19.40;99.90;;;;;;5086269;28;20043;-88
2023/10/13 10:18:00;;;;;;;16.67;6.80;;;19.40;99.90;;;;;;5095954;28;20126;-89
2023/10/13 10:20:44;;;;;;;16.42;7.28;;;19.40;99.90;;;;;;5104573;28;20046;-89
2023/10/13 10:23:21;;;;;;;10.27;3.83;;;19.40;99.90;;;;;;5106528;28;20135;-89
2023/10/13 10:25:50;;;;;;;15.35;6.82;;;19.40;99.90;;;;;;5081901;28;20040;-88
2023/10/13 10:28:15;;;;;;;16.50;6.45;;;19.40;99.90;;;;;;5095034;28;20088;-88
2023/10/13 10:30:43;;;;;;;16.80;7.43;;;19.50;99.90;;;;;;5082344;28;20492;-88
2023/10/13 10:33:13;;;;;;;14.73;6.70;;;19.50;99.90;;;;;;5078582;28;20043;-89
2023/10/13 10:35:44;;;;;;;16.75;6.97;;;19.50;99.90;;;;;;5081638;28;20035;-89
2023/10/13 10:38:24;;;;;;;15.68;7.43;;;19.60;99.90;;;;;;5095158;28;20039;-89
2023/10/13 10:41:01;;;;;;;15.55;6.72;;;19.60;99.90;;;;;;5094830;28;20035;-89
2023/10/13 10:43:57;;;;;;;20.38;7.18;;;19.70;99.90;;;;;;5094300;28;20040;-89
2023/10/13 10:46:27;;;;;;;14.07;6.72;;;19.80;99.90;;;;;;5077590;28;20032;-88
2023/10/13 10:49:00;;;;;;;13.35;6.47;;;19.80;99.90;;;;;;5094667;28;20028;-89
2023/10/13 10:51:31;;;;;;;15.25;6.80;;;19.90;99.90;;;;;;5077200;28;20044;-89
2023/10/13 10:53:58;;;;;;;17.95;6.72;;;19.90;99.90;;;;;;5076952;28;20047;-89
2023/10/13 10:56:25;;;;;;;16.50;7.03;;;19.90;99.90;;;;;;5095213;27;20040;-89
2023/10/13 10:58:56;;;;;;;18.50;6.93;;;19.90;99.90;;;;;;5083012;28;20050;-89
2023/10/13 11:01:23;;;;;;;17.23;7.45;;;19.90;99.90;;;;;;5085528;28;20043;-88
2023/10/13 11:04:08;;;;;;;19.48;6.70;;;19.90;99.90;;;;;;5076420;28;20067;-89
2023/10/13 11:06:45;;;;;;;17.60;7.03;;;19.90;99.90;;;;;;5102907;28;20406;-89
2023/10/13 11:10:19;;;;;;;17.27;6.63;;;19.90;99.90;;;;;;5076508;28;20039;-89
2023/10/13 11:12:22;;;;;;;17.80;6.32;;;19.90;99.90;;;;;;5077029;28;20043;-89
2023/10/13 11:14:50;;;;;;;16.73;6.75;;;19.90;99.90;;;;;;5081462;28;20040;-90
2023/10/13 11:17:33;;;;;;;18.38;6.75;;;19.90;99.90;;;;;;5086081;28;20035;-89
2023/10/13 11:20:17;;;;;;;15.25;6.68;;;20.00;99.90;;;;;;5085021;28;20032;-89
2023/10/13 11:22:47;;;;;;;17.65;7.18;;;20.00;99.90;;;;;;5085993;28;20031;-89
2023/10/13 11:25:35;;;;;;;17.77;6.88;;;20.00;99.90;;;;;;5106244;28;20510;-89
2023/10/13 11:28:17;;;;;;;20.25;7.47;;;20.00;99.90;;;;;;5084290;28;20062;-89
2023/10/13 11:30:45;;;;;;;15.48;6.85;;;20.20;99.90;;;;;;5085719;28;20093;-90
2023/10/13 11:33:11;;;;;;;14.88;6.65;;;20.20;99.90;;;;;;5106283;28;20038;-89
2023/10/13 11:35:49;;;;;;;16.73;6.88;;;20.20;99.90;;;;;;5104358;28;20473;-89
2023/10/13 11:38:27;;;;;;;16.85;6.75;;;20.20;99.90;;;;;;5106034;28;20035;-89
2023/10/13 11:43:36;;;;;;;18.73;7.30;;;20.40;99.90;;;;;;5104344;28;20035;-89
2023/10/13 11:48:36;;;;;;;18.67;7.30;;;20.50;99.90;;;;;;5093214;28;20036;-90
2023/10/13 11:51:09;;;;;;;17.25;7.80;;;20.50;99.90;;;;;;5084144;28;20038;-89
2023/10/13 11:53:38;;;;;;;16.92;6.65;;;20.50;99.90;;;;;;5087503;28;20181;-89
2023/10/13 11:56:09;;;;;;;17.70;7.25;;;20.50;99.90;;;;;;5079908;28;20043;-89
2023/10/13 11:58:35;;;;;;;17.00;7.38;;;20.50;99.90;;;;;;5078161;28;20036;-90
2023/10/13 12:01:19;;;;;;;19.05;7.40;;;20.50;99.90;;;;;;5094398;28;20118;-89
2023/10/13 12:09:14;;;;;;;15.63;7.25;;;20.60;99.90;;;;;;5100392;28;20183;-89
2023/10/13 12:11:41;;;;;;;20.08;7.80;;;20.60;99.90;;;;;;5088320;28;20047;-89
2023/10/13 12:14:19;;;;;;;15.95;7.07;;;20.50;99.90;;;;;;5088918;28;20081;-89
2023/10/13 12:16:51;;;;;;;18.15;7.22;;;20.50;99.90;;;;;;5097380;28;20087;-88
2023/10/13 12:19:23;;;;;;;;;;;20.50;99.90;;;;;;5080129;28;20032;-89
2023/10/13 12:22:05;;;;;;;18.70;6.93;;;20.50;99.90;;;;;;5080188;28;20302;-89
2023/10/13 12:27:14;;;;;;;17.02;7.28;;;20.50;99.90;;;;;;5097023;28;20039;-89
2023/10/13 12:29:46;;;;;;;17.30;6.55;;;20.60;99.90;;;;;;5080563;28;20031;-90
2023/10/13 12:32:12;;;;;;;14.43;6.53;;;20.60;99.90;;;;;;5079982;28;20036;-89
2023/10/13 12:51:23;;;;;;;19.92;7.47;;;20.80;99.90;;;;;;5096833;28;20422;-88
2023/10/13 12:53:53;;;;;;;15.05;7.13;;;20.90;99.90;;;;;;5098715;28;20039;-89
2023/10/13 12:56:26;;;;;;;17.77;7.32;;;21.00;99.90;;;;;;5092493;28;20039;-88
2023/10/13 12:58:52;;;;;;;17.75;6.93;;;20.90;99.90;;;;;;5096520;28;20067;-89
2023/10/13 13:01:23;;;;;;;19.77;7.22;;;21.00;99.90;;;;;;5096264;28;20044;-88
2023/10/13 13:03:55;;;;;;;18.52;7.22;;;21.00;99.90;;;;;;5078448;28;20035;-89
2023/10/13 13:06:26;;;;;;;17.23;7.68;;;21.00;99.90;;;;;;5079091;28;20039;-89
2023/10/13 13:09:10;;;;;;;17.27;7.25;;;21.00;99.90;;;;;;5079369;28;20075;-89
2023/10/13 13:11:42;;;;;;;17.58;7.18;;;20.90;99.90;;;;;;5101770;28;20468;-89
2023/10/13 13:14:08;;;;;;;9.95;3.75;;;20.90;99.90;;;;;;5096057;28;20042;-89
2023/10/13 13:16:35;;;;;;;14.52;7.45;;;20.90;99.90;;;;;;5079346;28;20035;-89
2023/10/13 13:19:09;;;;;;;19.08;7.53;;;20.90;99.90;;;;;;5085438;28;20502;-89
2023/10/13 13:21:38;;;;;;;18.92;7.20;;;21.00;99.90;;;;;;5079529;28;20059;-89
2023/10/13 13:24:10;;;;;;;19.80;7.65;;;21.00;99.90;;;;;;5095677;28;20031;-89
2023/10/13 13:26:40;;;;;;;18.60;7.65;;;21.00;99.90;;;;;;5096044;28;20043;-89
2023/10/13 13:29:09;;;;;;;16.15;6.90;;;21.00;99.90;;;;;;5079442;28;20630;-89
2023/10/13 13:31:40;;;;;;;16.45;6.28;;;21.00;99.90;;;;;;5101561;28;20046;-89
2023/10/13 13:34:09;;;;;;;20.33;7.57;;;21.00;99.90;;;;;;5095482;28;20046;-89
2023/10/13 13:36:35;;;;;;;17.60;7.47;;;21.00;99.90;;;;;;5078831;28;20286;-90
2023/10/13 13:39:01;;;;;;;15.15;6.90;;;21.00;99.90;;;;;;5095340;28;20038;-89
2023/10/13 13:41:27;;;;;;;14.65;7.10;;;20.90;99.90;;;;;;5086968;28;20036;-89
2023/10/13 13:43:56;;;;;;;16.05;7.20;;;21.00;99.90;;;;;;5078674;28;20475;-89
2023/10/13 13:46:32;;;;;;;17.85;6.78;;;21.00;99.90;;;;;;5078600;28;20036;-89
2023/10/13 13:48:59;;;;;;;18.77;7.93;;;21.00;99.90;;;;;;5084997;28;20406;-89
2023/10/13 13:51:29;;;;;;;18.73;7.40;;;21.00;99.90;;;;;;5096626;28;20127;-89
2023/10/13 13:53:58;;;;;;;19.40;7.30;;;20.90;99.90;;;;;;5098110;28;20039;-90
2023/10/13 13:56:25;;;;;;;19.98;7.25;;;20.80;99.90;;;;;;5077489;28;20043;-89
2023/10/13 13:58:51;;;;;;;16.52;7.38;;;20.70;99.90;;;;;;5078212;28;20043;-90
2023/10/13 14:01:18;;;;;;;15.77;7.32;;;20.70;99.90;;;;;;5078402;28;20035;-89
2023/10/13 14:03:46;;;;;;;17.63;7.30;;;20.70;99.90;;;;;;5077822;28;20176;-90
2023/10/13 14:06:26;;;;;;;14.57;7.78;;;20.60;99.90;;;;;;5078476;28;20039;-89
2023/10/13 14:08:57;;;;;;;16.13;7.50;;;20.50;99.90;;;;;;5077888;28;20073;-89
2023/10/13 14:14:11;;;;;;;;;;;20.40;99.90;;;;;;5095340;28;20040;-89
2023/10/13 14:16:45;;;;;;;17.83;7.88;;;20.20;99.90;;;;;;5078360;28;19920;-90
2023/10/13 14:19:19;;;;;;;16.55;7.55;;;20.20;99.90;;;;;;5094550;28;20040;-90
2023/10/13 14:21:51;;;;;;;18.20;7.88;;;20.20;99.90;;;;;;5077950;28;20078;-89
2023/10/13 14:24:27;;;;;;;13.88;7.47;;;20.10;99.90;;;;;;5099873;28;20046;-89
2023/10/13 14:26:53;;;;;;;16.83;8.10;;;20.10;99.90;;;;;;5077769;28;20042;-89
2023/10/13 14:29:19;;;;;;;16.17;8.07;;;20.10;99.90;;;;;;5077584;28;20035;-89
2023/10/13 14:31:48;;;;;;;17.08;8.40;;;20.10;99.90;;;;;;5093587;28;20056;-89
2023/10/13 14:34:14;;;;;;;18.35;7.80;;;20.20;99.90;;;;;;5077618;28;20039;-89
2023/10/13 14:36:40;;;;;;;16.80;7.70;;;20.10;99.90;;;;;;5086379;28;20123;-89
2023/10/13 14:39:10;;;;;;;18.58;7.78;;;20.10;99.90;;;;;;5077346;28;20548;-89
2023/10/13 14:41:38;;;;;;;18.67;8.13;;;20.10;99.90;;;;;;5080934;28;20069;-89
2023/10/13 14:44:07;;;;;;;15.50;7.93;;;20.20;99.90;;;;;;5095664;28;20044;-89
2023/10/13 14:46:39;;;;;;;16.50;7.80;;;20.10;99.90;;;;;;5097014;28;20150;-90
2023/10/13 14:49:05;;;;;;;18.52;8.45;;;20.10;99.90;;;;;;5078899;28;20036;-89
2023/10/13 14:51:31;;;;;;;15.98;7.90;;;20.00;99.90;;;;;;5077772;28;20047;-90
2023/10/13 14:53:59;;;;;;;18.50;8.60;;;20.00;99.90;;;;;;5077520;28;20063;-89
2023/10/13 14:56:26;;;;;;;16.50;8.45;;;19.90;99.90;;;;;;5077829;28;20065;-89
2023/10/13 14:58:53;;;;;;;17.67;8.45;;;19.80;99.90;;;;;;5077283;28;20502;-90
2023/10/13 15:01:26;;;;;;;19.35;8.80;;;19.70;99.90;;;;;;5078505;28;20043;-90
2023/10/13 15:03:55;;;;;;;20.10;9.02;;;19.60;99.90;;;;;;5104586;27;20035;-89
2023/10/13 15:06:28;;;;;;;17.40;9.10;;;19.50;99.90;;;;;;5084540;27;20078;-89
2023/10/13 15:08:55;;;;;;;20.10;9.20;;;19.40;99.90;;;;;;5082473;28;20058;-89
2023/10/13 15:11:36;;;;;;;22.55;9.13;;;19.40;99.90;;;;;;5099054;28;20044;-89
2023/10/13 15:14:08;;;;;;;19.73;9.07;;;19.30;99.90;;;;;;5083170;28;20106;-89
2023/10/13 15:16:33;;;;;;;14.95;8.80;;;19.20;99.90;;;;;;5093423;28;20043;-89
2023/10/13 15:18:59;;;;;;;17.92;8.55;;;19.20;99.90;;;;;;5098100;27;20023;-89
2023/10/13 15:21:35;;;;;;;17.60;8.23;;;19.20;99.90;;;;;;5102873;28;20069;-89
2023/10/13 15:24:16;;;;;;;20.60;8.68;;;19.20;99.90;;;;;;5082462;28;20036;-89
2023/10/13 15:26:48;;;;;;;19.25;8.73;;;19.10;99.90;;;;;;5089380;27;20057;-89
2023/10/13 15:29:16;;;;;;;;;;;19.10;99.90;;;;;;5105233;28;20042;-89
2023/10/13 15:31:54;;;;;;;18.70;8.93;;;19.00;99.90;;;;;;5082401;28;19923;-89
2023/10/13 15:34:19;;;;;;;17.90;8.70;;;18.90;99.90;;;;;;5101356;28;20028;-89
2023/10/13 15:36:45;;;;;;;17.80;8.60;;;18.90;99.90;;;;;;5104617;28;20032;-89
2023/10/13 15:39:15;;;;;;;18.85;8.15;;;18.90;99.90;;;;;;5105510;28;20050;-89
2023/10/13 15:41:41;;;;;;;20.52;9.30;;;18.80;99.90;;;;;;5086393;28;20127;-89
2023/10/13 15:44:12;;;;;;;12.80;5.38;;;18.80;99.90;;;;;;5108968;27;20114;-89
2023/10/13 15:46:39;;;;;;;19.65;8.80;;;18.80;99.90;;;;;;5089452;27;20043;-89
2023/10/13 15:49:05;;;;;;;16.83;8.52;;;18.70;99.90;;;;;;5110307;27;21264;-89
2023/10/13 15:51:37;;;;;;;19.65;8.45;;;18.80;99.90;;;;;;5091325;27;20647;-89
2023/10/13 15:54:03;;;;;;;15.82;8.48;;;18.80;99.90;;;;;;5103203;28;20043;-89
2023/10/13 15:56:32;;;;;;;16.77;8.52;;;18.70;99.90;;;;;;5105058;28;20058;-88
2023/10/13 15:59:01;;;;;;;17.10;8.38;;;18.70;99.90;;;;;;5089530;27;20034;-89
2023/10/13 16:01:28;;;;;;;17.95;8.63;;;18.70;99.90;;;;;;5089191;27;20031;-88
2023/10/13 16:03:54;;;;;;;17.60;8.27;;;18.70;99.90;;;;;;5085820;27;20070;-88
2023/10/13 16:06:24;;;;;;;16.48;7.75;;;18.70;99.90;;;;;;5083242;28;20039;-88
2023/10/13 16:08:52;;;;;;;15.45;7.85;;;18.70;99.90;;;;;;5080394;28;20131;-88
2023/10/13 16:11:18;;;;;;;13.15;5.28;;;18.70;99.90;;;;;;5080639;28;20066;-88
2023/10/13 16:13:44;;;;;;;24.00;9.35;;;18.70;99.90;;;;;;5097261;28;20066;-89